createdAt,value
2018-06-30T00:01:23.216Z,17.6
2018-06-30T00:06:20.532Z,17.3
2018-06-30T00:11:17.684Z,17.8
2018-06-30T00:16:15.183Z,17.8
2018-06-30T00:21:12.718Z,16.2
2018-06-30T00:26:09.983Z,17.4
2018-06-30T00:31:07.274Z,17.7
2018-06-30T00:36:04.691Z,17.8
2018-06-30T00:41:02.008Z,17.2
2018-06-30T00:45:59.548Z,17.8
2018-06-30T00:50:57.370Z,17.8
2018-06-30T00:55:54.727Z,17.3
2018-06-30T01:00:52.302Z,17.8
2018-06-30T01:05:49.441Z,17.9
2018-06-30T01:10:47.018Z,17.1
2018-06-30T01:15:45.163Z,17.9
2018-06-30T01:20:43.040Z,17.4
2018-06-30T01:25:40.250Z,17.9
2018-06-30T01:30:38.350Z,17
2018-06-30T01:35:35.576Z,17.9
2018-06-30T01:40:32.911Z,17.9
2018-06-30T01:45:30.187Z,18
2018-06-30T01:50:27.620Z,18
2018-06-30T01:55:24.879Z,18
2018-06-30T02:00:22.430Z,18
2018-06-30T02:05:20.039Z,17.4
2018-06-30T02:10:17.724Z,18
2018-06-30T02:15:15.132Z,17.5
2018-06-30T02:20:13.276Z,17.5
2018-06-30T02:25:10.794Z,18
2018-06-30T02:30:07.817Z,18
2018-06-30T02:35:05.144Z,18
2018-06-30T02:40:02.361Z,18
2018-06-30T02:44:59.535Z,16.7
2018-06-30T02:49:56.888Z,18
2018-06-30T02:54:54.411Z,18
2018-06-30T02:59:51.736Z,17.4
2018-06-30T03:04:48.966Z,18
2018-06-30T03:09:46.438Z,17.7
2018-06-30T03:14:43.858Z,18
2018-06-30T03:19:40.954Z,17.5
2018-06-30T03:24:38.168Z,18.1
2018-06-30T03:29:35.553Z,18.1
2018-06-30T03:34:33.915Z,17.2
2018-06-30T03:39:31.223Z,18.2
2018-06-30T03:44:28.964Z,18.2
2018-06-30T03:49:26.187Z,18.2
2018-06-30T03:54:24.020Z,17.3
2018-06-30T03:59:21.401Z,18.2
2018-06-30T04:04:18.209Z,18.2
2018-06-30T04:09:15.689Z,18.2
2018-06-30T04:14:13.306Z,18.2
2018-06-30T04:19:10.741Z,18.2
2018-06-30T04:24:08.119Z,18.2
2018-06-30T04:29:05.000Z,18.1
2018-06-30T04:34:02.124Z,18.3
2018-06-30T04:38:59.251Z,18.3
2018-06-30T04:43:56.601Z,18.3
2018-06-30T04:48:53.840Z,18.3
2018-06-30T04:53:51.506Z,18.2
2018-06-30T04:58:48.249Z,17
2018-06-30T05:03:45.546Z,18.3
2018-06-30T05:08:42.836Z,18.3
2018-06-30T05:13:40.325Z,17.6
2018-06-30T05:18:37.246Z,18.3
2018-06-30T05:23:34.435Z,16.6
2018-06-30T05:28:31.713Z,18.1
2018-06-30T05:33:28.698Z,18.3
2018-06-30T05:38:26.050Z,18.3
2018-06-30T05:43:24.128Z,18.3
2018-06-30T05:48:21.197Z,18.3
2018-06-30T05:53:18.707Z,18.4
2018-06-30T05:58:15.636Z,18.5
2018-06-30T06:03:13.355Z,18.4
2018-06-30T06:08:11.271Z,18
2018-06-30T06:13:08.518Z,18.6
2018-06-30T06:18:04.578Z,18.6
2018-06-30T06:23:01.359Z,18.3
2018-06-30T06:27:58.293Z,18.5
2018-06-30T06:32:55.799Z,18.7
2018-06-30T06:37:52.946Z,18.7
2018-06-30T06:42:50.442Z,18.6
2018-06-30T06:47:48.755Z,18.7
2018-06-30T06:52:49.967Z,18.7
2018-06-30T06:57:47.258Z,18.8
2018-06-30T07:02:44.541Z,18.8
2018-06-30T07:07:41.904Z,18.9
2018-06-30T07:12:38.984Z,18.9
2018-06-30T07:17:37.139Z,19
2018-06-30T07:22:34.898Z,19.1
2018-06-30T07:27:32.513Z,19.1
2018-06-30T07:32:29.466Z,19.2
2018-06-30T07:37:26.920Z,19.2
2018-06-30T07:42:23.912Z,19.2
2018-06-30T07:47:21.041Z,19.2
2018-06-30T07:52:18.115Z,19.2
2018-06-30T07:57:15.374Z,19.2
2018-06-30T08:02:12.901Z,19.3
2018-06-30T08:07:10.470Z,19.4
2018-06-30T08:12:08.123Z,19.4
2018-06-30T08:17:06.108Z,19
2018-06-30T08:22:03.333Z,19.6
2018-06-30T08:27:01.105Z,19.7
2018-06-30T08:31:58.845Z,19.7
2018-06-30T08:36:56.569Z,19.8
2018-06-30T08:41:54.150Z,19.9
2018-06-30T08:46:51.539Z,20
2018-06-30T08:51:48.793Z,20.1
2018-06-30T08:56:45.928Z,20.1
2018-06-30T09:01:43.308Z,20.1
2018-06-30T09:06:40.852Z,20.1
2018-06-30T09:11:39.218Z,19.6
2018-06-30T09:16:36.545Z,20.2
2018-06-30T09:21:34.307Z,19.6
2018-06-30T09:26:31.743Z,20.4
2018-06-30T09:31:28.978Z,20.4
2018-06-30T09:36:26.523Z,19.5
2018-06-30T09:41:24.235Z,19.9
2018-06-30T09:46:21.651Z,20.5
2018-06-30T09:51:19.415Z,20.5
2018-06-30T09:56:16.983Z,20
2018-06-30T10:01:13.590Z,20.6
2018-06-30T10:06:11.011Z,20.7
2018-06-30T10:11:08.620Z,20.8
2018-06-30T10:16:06.111Z,20.9
2018-06-30T10:21:03.015Z,20.4
2018-06-30T10:26:00.328Z,20.5
2018-06-30T10:30:57.819Z,20.6
2018-06-30T10:35:55.172Z,21.3
2018-06-30T10:40:52.701Z,20.9
2018-06-30T10:45:50.221Z,20.9
2018-06-30T10:50:47.329Z,21.6
2018-06-30T10:55:44.801Z,21.6
2018-06-30T11:00:41.397Z,21.7
2018-06-30T11:05:38.959Z,21.9
2018-06-30T11:10:36.472Z,21.5
2018-06-30T11:15:34.816Z,22.1
2018-06-30T11:20:32.314Z,22
2018-06-30T11:25:30.186Z,22.8
2018-06-30T11:30:28.450Z,23
2018-06-30T11:35:26.217Z,22.5
2018-06-30T11:40:23.955Z,23
2018-06-30T11:45:21.665Z,23.1
2018-06-30T11:50:17.719Z,23.5
2018-06-30T11:55:15.076Z,23.8
2018-06-30T12:00:12.759Z,23.4
2018-06-30T12:05:11.481Z,23.7
2018-06-30T12:10:09.366Z,23.9
2018-06-30T12:15:07.251Z,24.1
2018-06-30T12:20:05.479Z,24.9
2018-06-30T12:25:03.469Z,25.1
2018-06-30T12:30:01.675Z,25.2
2018-06-30T12:34:59.611Z,25.3
2018-06-30T12:39:57.468Z,24.6
2018-06-30T12:44:55.603Z,25.3
2018-06-30T12:49:53.933Z,25.4
2018-06-30T12:54:51.522Z,25.4
2018-06-30T12:59:49.462Z,25.4
2018-06-30T13:04:47.279Z,25.5
2018-06-30T13:09:45.590Z,25.6
2018-06-30T13:14:43.436Z,26
2018-06-30T13:19:42.259Z,26.6
2018-06-30T13:24:40.361Z,27
2018-06-30T13:29:38.707Z,26.8
2018-06-30T13:34:36.915Z,26.7
2018-06-30T13:39:35.497Z,26.6
2018-06-30T13:44:33.455Z,26
2018-06-30T13:49:31.278Z,26.4
2018-06-30T13:54:28.990Z,26.4
2018-06-30T13:59:26.828Z,26.4
2018-06-30T14:04:24.864Z,26.4
2018-06-30T14:09:22.093Z,26.4
2018-06-30T14:14:20.400Z,26.3
2018-06-30T14:19:18.591Z,26.2
2018-06-30T14:24:16.903Z,26.1
2018-06-30T14:29:14.839Z,26
2018-06-30T14:34:12.820Z,26.1
2018-06-30T14:39:10.562Z,26
2018-06-30T14:44:09.467Z,26
2018-06-30T14:49:07.442Z,26
2018-06-30T14:54:05.502Z,25.8
2018-06-30T14:59:03.557Z,20.6
2018-06-30T15:04:01.046Z,25.2
2018-06-30T15:08:58.505Z,24.9
2018-06-30T15:13:54.308Z,24.6
2018-06-30T15:18:51.978Z,24.4
2018-06-30T15:23:49.822Z,24.1
2018-06-30T15:28:47.554Z,24
2018-06-30T15:33:45.758Z,23.9
2018-06-30T15:38:43.654Z,23.4
2018-06-30T15:43:41.486Z,23.6
2018-06-30T15:48:39.275Z,23
2018-06-30T15:53:37.181Z,23.5
2018-06-30T15:58:35.095Z,22.9
2018-06-30T16:03:32.717Z,23.4
2018-06-30T16:08:30.625Z,23.3
2018-06-30T16:13:28.092Z,23.3
2018-06-30T16:18:26.252Z,22.8
2018-06-30T16:23:24.204Z,23.4
2018-06-30T16:28:22.406Z,23
2018-06-30T16:33:20.380Z,23.6
2018-06-30T16:38:18.943Z,23.6
2018-06-30T16:43:19.988Z,23.6
2018-06-30T16:48:18.194Z,23.4
2018-06-30T16:53:16.283Z,23.6
2018-06-30T16:58:15.030Z,23
2018-06-30T17:03:13.242Z,22.9
2018-06-30T17:08:11.516Z,23.3
2018-06-30T17:13:10.284Z,22.6
2018-06-30T17:18:08.618Z,23.1
2018-06-30T17:23:06.687Z,23
2018-06-30T17:28:04.596Z,22.4
2018-06-30T17:33:02.421Z,22.3
2018-06-30T17:38:00.382Z,22.5
2018-06-30T17:42:58.125Z,22.2
2018-06-30T17:47:56.311Z,22.2
2018-06-30T17:52:54.403Z,22.5
2018-06-30T17:57:52.487Z,22
2018-06-30T18:02:50.135Z,22.5
2018-06-30T18:07:48.759Z,22.4
2018-06-30T18:12:46.448Z,22.4
2018-06-30T18:17:44.322Z,22.3
2018-06-30T18:22:42.961Z,22.1
2018-06-30T18:27:40.284Z,22.2
2018-06-30T18:32:38.256Z,22.1
2018-06-30T18:37:35.965Z,22.1
2018-06-30T18:42:33.863Z,22
2018-06-30T18:47:31.930Z,22
2018-06-30T18:52:29.949Z,22
2018-06-30T18:57:27.938Z,21.9
2018-06-30T19:02:26.045Z,21.9
2018-06-30T19:07:23.612Z,21.9
2018-06-30T19:12:21.321Z,21.8
2018-06-30T19:17:19.675Z,21.8
2018-06-30T19:22:18.380Z,21.2
2018-06-30T19:27:16.445Z,21.2
2018-06-30T19:32:14.304Z,21.6
2018-06-30T19:37:12.408Z,21.1
2018-06-30T19:42:10.909Z,21.6
2018-06-30T19:47:08.517Z,21.4
2018-06-30T19:52:06.207Z,21.5
2018-06-30T19:57:03.663Z,20.9
2018-06-30T20:02:01.402Z,21.4
2018-06-30T20:06:58.549Z,21.4
2018-06-30T20:11:56.769Z,21.3
2018-06-30T20:16:54.390Z,20.7
2018-06-30T20:21:52.383Z,21.3
2018-06-30T20:26:50.688Z,20.7
2018-06-30T20:31:48.383Z,20.7
2018-06-30T20:36:46.460Z,20.6
2018-06-30T20:41:43.693Z,21.2
2018-06-30T20:46:41.609Z,20.6
2018-06-30T20:51:39.937Z,21.2
2018-06-30T20:56:38.151Z,21.1
2018-06-30T21:01:36.685Z,21.1
2018-06-30T21:06:34.751Z,21.1
2018-06-30T21:11:32.532Z,21
2018-06-30T21:16:30.381Z,21
2018-06-30T21:21:28.242Z,20.9
2018-06-30T21:26:26.512Z,20.3
2018-06-30T21:31:24.501Z,20.3
2018-06-30T21:36:22.600Z,20.8
2018-06-30T21:41:20.949Z,20.1
2018-06-30T21:46:18.711Z,20.6
2018-06-30T21:51:17.198Z,20.1
2018-06-30T21:56:14.887Z,20.6
2018-06-30T22:01:13.422Z,20
2018-06-30T22:06:11.989Z,18.4
2018-06-30T22:11:10.110Z,20.5
2018-06-30T22:16:08.054Z,20.5
2018-06-30T22:21:05.997Z,20.5
2018-06-30T22:26:03.617Z,20.4
2018-06-30T22:31:01.967Z,20.4
2018-06-30T22:36:00.647Z,19.9
2018-06-30T22:40:58.798Z,20.4
2018-06-30T22:45:56.529Z,20.4
2018-06-30T22:50:54.386Z,20.2
2018-06-30T22:55:52.366Z,20.3
2018-06-30T23:00:50.774Z,20.3
2018-06-30T23:05:48.514Z,20.3
2018-06-30T23:10:46.805Z,20.3
2018-06-30T23:15:44.974Z,19.8
2018-06-30T23:20:43.622Z,20.3
2018-06-30T23:25:41.730Z,19.7
2018-06-30T23:30:39.351Z,20.2
2018-06-30T23:35:37.682Z,19.6
2018-06-30T23:40:36.542Z,20.1
2018-06-30T23:45:34.106Z,20.1
2018-06-30T23:50:32.116Z,20
2018-06-30T23:55:30.189Z,19.5
